createdAt,value
2019-04-10T00:01:24.393Z,48.37
2019-04-10T00:03:58.664Z,40.27
2019-04-10T00:06:27.885Z,35.33
2019-04-10T00:09:00.816Z,35.87
2019-04-10T00:11:32.428Z,38.90
2019-04-10T00:14:06.184Z,50.83
2019-04-10T00:16:45.055Z,35.07
2019-04-10T00:19:37.933Z,43.20
2019-04-10T00:22:09.624Z,37.57
2019-04-10T00:25:08.550Z,34.40
2019-04-10T00:43:43.436Z,35.70
2019-04-10T00:47:12.969Z,39.87
2019-04-10T00:50:24.974Z,39.17
2019-04-10T00:57:07.752Z,38.50
2019-04-10T00:59:57.499Z,37.03
2019-04-10T01:02:34.501Z,37.70
2019-04-10T01:05:15.520Z,40.63
2019-04-10T01:08:24.506Z,42.93
2019-04-10T01:11:28.743Z,32.23
2019-04-10T01:14:14.351Z,29.17
2019-04-10T01:16:55.796Z,32.73
2019-04-10T01:20:30.024Z,35.00
2019-04-10T01:27:23.984Z,36.47
2019-04-10T01:30:38.585Z,34.70
2019-04-10T01:33:50.077Z,36.93
2019-04-10T01:36:54.329Z,36.20
2019-04-10T01:39:39.999Z,39.50
2019-04-10T01:42:28.390Z,38.70
2019-04-10T01:45:11.344Z,38.87
2019-04-10T01:48:17.469Z,42.87
2019-04-10T01:50:59.077Z,39.57
2019-04-10T01:53:46.145Z,40.87
2019-04-10T01:56:39.715Z,47.47
2019-04-10T01:59:36.413Z,43.33
2019-04-10T02:02:50.312Z,48.60
2019-04-10T02:05:52.546Z,45.73
2019-04-10T02:12:56.021Z,44.80
2019-04-10T02:16:08.229Z,51.50
2019-04-10T02:18:49.957Z,49.07
2019-04-10T02:21:25.495Z,55.63
2019-04-10T02:27:37.190Z,54.80
2019-04-10T02:30:43.898Z,61.37
2019-04-10T02:34:12.875Z,55.43
2019-04-10T02:36:55.672Z,61.47
2019-04-10T02:40:00.334Z,52.10
2019-04-10T02:42:36.318Z,52.67
2019-04-10T02:45:15.048Z,55.50
2019-04-10T02:48:12.065Z,54.50
2019-04-10T02:50:59.568Z,59.70
2019-04-10T02:53:31.622Z,62.80
2019-04-10T02:56:05.281Z,59.90
2019-04-10T02:58:51.645Z,61.13
2019-04-10T03:01:33.460Z,53.83
2019-04-10T03:04:09.771Z,64.90
2019-04-10T03:06:45.153Z,62.13
2019-04-10T03:09:38.786Z,61.90
2019-04-10T03:11:55.113Z,69.00
2019-04-10T03:14:30.101Z,68.20
2019-04-10T03:17:06.061Z,64.93
2019-04-10T03:19:45.538Z,61.40
2019-04-10T03:22:21.563Z,66.87
2019-04-10T03:24:57.466Z,61.80
2019-04-10T03:27:23.101Z,68.90
2019-04-10T03:29:51.892Z,65.00
2019-04-10T03:32:41.734Z,73.50
2019-04-10T03:35:14.837Z,62.63
2019-04-10T03:37:42.560Z,59.40
2019-04-10T03:40:11.134Z,64.87
2019-04-10T03:42:39.177Z,65.37
2019-04-10T03:45:07.515Z,63.67
2019-04-10T03:47:35.576Z,62.30
2019-04-10T03:50:03.170Z,57.57
2019-04-10T03:52:31.529Z,61.73
2019-04-10T03:54:58.941Z,62.70
2019-04-10T03:57:26.831Z,60.37
2019-04-10T03:59:54.289Z,64.43
2019-04-10T04:02:24.011Z,63.03
2019-04-10T04:04:51.465Z,60.23
2019-04-10T04:07:18.918Z,68.40
2019-04-10T04:09:46.409Z,62.57
2019-04-10T04:12:14.749Z,61.17
2019-04-10T04:14:42.254Z,63.47
2019-04-10T04:17:09.984Z,69.63
2019-04-10T04:19:38.015Z,65.63
2019-04-10T04:22:06.123Z,68.00
2019-04-10T04:24:33.621Z,64.67
2019-04-10T04:27:01.069Z,60.17
2019-04-10T04:29:28.514Z,70.63
2019-04-10T04:31:56.896Z,64.80
2019-04-10T04:34:25.012Z,67.47
2019-04-10T04:36:53.593Z,67.70
2019-04-10T04:39:26.395Z,67.87
2019-04-10T04:41:52.454Z,69.90
2019-04-10T04:44:22.756Z,70.40
2019-04-10T04:46:54.098Z,66.10
2019-04-10T04:49:22.686Z,67.27
2019-04-10T04:51:51.018Z,75.60
2019-04-10T04:54:19.241Z,67.87
2019-04-10T04:56:47.004Z,69.40
2019-04-10T04:59:14.476Z,71.37
2019-04-10T05:01:42.502Z,69.73
2019-04-10T05:04:10.927Z,70.17
2019-04-10T05:06:39.480Z,78.13
2019-04-10T05:09:07.188Z,68.00
2019-04-10T05:11:34.648Z,73.20
2019-04-10T05:14:02.772Z,67.97
2019-04-10T05:16:30.933Z,58.60
2019-04-10T05:18:59.553Z,66.33
2019-04-10T05:21:27.373Z,62.83
2019-04-10T05:23:55.456Z,71.87
2019-04-10T05:26:22.940Z,70.17
2019-04-10T05:28:50.882Z,61.83
2019-04-10T05:31:19.278Z,62.30
2019-04-10T05:33:47.148Z,58.40
2019-04-10T05:36:15.341Z,62.77
2019-04-10T05:38:43.908Z,60.87
2019-04-10T05:41:13.354Z,58.47
2019-04-10T05:43:40.871Z,60.83
2019-04-10T05:46:08.318Z,67.33
2019-04-10T05:48:35.830Z,63.63
2019-04-10T05:51:05.691Z,68.77
2019-04-10T05:53:32.650Z,60.57
2019-04-10T05:56:00.105Z,67.80
2019-04-10T05:58:27.623Z,64.20
2019-04-10T06:00:56.819Z,62.33
2019-04-10T06:03:24.748Z,56.50
2019-04-10T06:05:52.629Z,59.90
2019-04-10T06:08:20.155Z,67.97
2019-04-10T06:10:47.976Z,58.77
2019-04-10T06:13:45.060Z,61.60
2019-04-10T06:16:12.981Z,66.67
2019-04-10T06:18:43.598Z,59.00
2019-04-10T06:21:12.475Z,71.30
2019-04-10T06:23:43.403Z,60.97
2019-04-10T06:26:27.996Z,65.07
2019-04-10T06:29:28.746Z,60.10
2019-04-10T06:32:03.317Z,66.63
2019-04-10T06:34:34.248Z,61.07
2019-04-10T06:37:06.129Z,62.33
2019-04-10T06:39:46.395Z,65.83
2019-04-10T06:42:17.238Z,71.53
2019-04-10T06:44:58.624Z,59.30
2019-04-10T06:47:30.569Z,61.20
2019-04-10T06:50:02.785Z,65.33
2019-04-10T06:52:35.053Z,61.17
2019-04-10T06:55:05.295Z,70.23
2019-04-10T06:57:48.088Z,67.80
2019-04-10T07:00:13.774Z,71.97
2019-04-10T07:02:39.874Z,65.77
2019-04-10T07:05:12.123Z,60.20
2019-04-10T07:07:50.774Z,64.37
2019-04-10T07:10:23.778Z,64.80
2019-04-10T07:12:41.955Z,64.27
2019-04-10T07:15:10.645Z,67.20
2019-04-10T07:17:41.044Z,70.83
2019-04-10T07:20:10.413Z,65.53
2019-04-10T07:22:46.621Z,64.10
2019-04-10T07:25:13.149Z,67.70
2019-04-10T07:27:41.939Z,60.83
2019-04-10T07:30:09.873Z,65.73
2019-04-10T07:32:41.295Z,66.93
2019-04-10T07:35:07.321Z,61.20
2019-04-10T07:37:37.726Z,67.80
2019-04-10T07:40:06.338Z,62.67
2019-04-10T07:42:38.450Z,67.53
2019-04-10T07:45:08.126Z,66.07
2019-04-10T07:47:38.382Z,64.70
2019-04-10T07:50:08.786Z,67.57
2019-04-10T07:52:39.889Z,64.80
2019-04-10T07:55:14.991Z,70.47
2019-04-10T07:57:51.476Z,65.70
2019-04-10T08:00:22.318Z,70.50
2019-04-10T08:03:10.120Z,59.30
2019-04-10T08:05:38.160Z,64.57
2019-04-10T08:08:05.888Z,67.07
2019-04-10T08:10:33.472Z,61.40
2019-04-10T08:13:02.264Z,64.17
2019-04-10T08:15:30.146Z,62.57
2019-04-10T08:17:58.313Z,63.27
2019-04-10T08:20:26.134Z,53.27
2019-04-10T08:22:53.888Z,57.97
2019-04-10T08:25:24.823Z,64.53
2019-04-10T08:27:54.892Z,62.40
2019-04-10T08:30:23.667Z,59.37
2019-04-10T08:32:59.966Z,66.50
2019-04-10T08:35:21.458Z,59.20
2019-04-10T08:37:49.069Z,58.17
2019-04-10T08:40:17.015Z,54.30
2019-04-10T08:42:46.119Z,55.70
2019-04-10T08:45:13.983Z,60.37
2019-04-10T08:47:42.175Z,62.17
2019-04-10T08:50:11.877Z,63.20
2019-04-10T08:52:40.977Z,57.60
2019-04-10T08:55:10.131Z,54.47
2019-04-10T08:57:40.297Z,63.90
2019-04-10T09:01:23.026Z,62.40
2019-04-10T09:04:03.615Z,55.97
2019-04-10T09:06:33.607Z,57.40
2019-04-10T09:09:17.320Z,57.83
2019-04-10T09:11:47.233Z,60.27
2019-04-10T09:14:21.124Z,57.50
2019-04-10T09:16:49.046Z,64.27
2019-04-10T09:19:18.835Z,63.50
2019-04-10T09:21:47.982Z,58.50
2019-04-10T09:24:19.620Z,56.10
2019-04-10T09:26:48.620Z,63.03
2019-04-10T09:29:21.794Z,51.27
2019-04-10T09:31:48.871Z,52.87
2019-04-10T09:34:18.099Z,58.73
2019-04-10T09:36:49.305Z,54.70
2019-04-10T09:39:17.397Z,54.93
2019-04-10T09:41:46.058Z,55.73
2019-04-10T09:44:16.884Z,50.00
2019-04-10T09:46:51.668Z,51.60
2019-04-10T09:49:31.941Z,52.00
2019-04-10T09:51:50.194Z,49.53
2019-04-10T09:54:18.354Z,50.77
2019-04-10T09:56:48.841Z,48.73
2019-04-10T09:59:16.638Z,47.80
2019-04-10T10:01:44.536Z,56.50
2019-04-10T10:04:13.226Z,52.27
2019-04-10T10:06:41.151Z,57.07
2019-04-10T10:09:08.677Z,52.70
2019-04-10T10:11:36.658Z,52.30
2019-04-10T10:14:07.145Z,54.77
2019-04-10T10:16:35.838Z,53.43
2019-04-10T10:19:03.671Z,44.53
2019-04-10T10:21:32.795Z,48.20
2019-04-10T10:24:00.953Z,48.77
2019-04-10T10:26:36.498Z,46.87
2019-04-10T10:29:07.437Z,50.33
2019-04-10T10:31:47.379Z,48.57
2019-04-10T10:34:16.408Z,56.23
2019-04-10T10:36:47.393Z,54.87
2019-04-10T10:39:19.063Z,53.20
2019-04-10T10:41:47.500Z,52.73
2019-04-10T10:44:19.534Z,56.10
2019-04-10T10:47:11.647Z,55.87
2019-04-10T10:49:59.530Z,52.13
2019-04-10T10:52:35.458Z,54.30
2019-04-10T10:55:12.028Z,45.37
2019-04-10T10:57:49.442Z,54.67
2019-04-10T11:00:18.918Z,49.33
2019-04-10T11:02:54.451Z,51.17
2019-04-10T11:05:30.816Z,52.20
2019-04-10T11:08:05.395Z,52.30
2019-04-10T11:10:33.813Z,52.90
2019-04-10T11:13:04.551Z,55.37
2019-04-10T11:15:32.445Z,52.73
2019-04-10T11:18:00.515Z,60.63
2019-04-10T11:20:28.346Z,39.83
2019-04-10T11:22:55.981Z,47.87
2019-04-10T11:25:23.851Z,43.20
2019-04-10T11:27:51.609Z,48.50
2019-04-10T11:30:20.562Z,52.90
2019-04-10T11:32:48.731Z,49.97
2019-04-10T11:35:17.518Z,50.40
2019-04-10T11:37:49.254Z,57.17
2019-04-10T11:40:17.606Z,47.17
2019-04-10T11:42:48.583Z,45.80
2019-04-10T11:45:18.205Z,53.33
2019-04-10T11:47:47.463Z,48.70
2019-04-10T11:50:18.688Z,56.37
2019-04-10T11:52:53.158Z,57.83
2019-04-10T11:55:21.197Z,50.67
2019-04-10T11:57:49.721Z,47.60
2019-04-10T12:00:27.227Z,49.97
2019-04-10T12:02:58.226Z,49.40
2019-04-10T12:05:25.852Z,45.30
2019-04-10T12:12:54.346Z,46.37
2019-04-10T12:15:22.149Z,47.10
2019-04-10T12:17:49.922Z,48.50
2019-04-10T12:20:18.749Z,45.00
2019-04-10T12:22:46.574Z,49.20
2019-04-10T12:25:15.523Z,47.43
2019-04-10T12:27:43.220Z,42.67
2019-04-10T12:30:11.218Z,53.07
2019-04-10T12:32:38.979Z,55.13
2019-04-10T12:35:07.411Z,47.80
2019-04-10T12:37:39.134Z,48.83
2019-04-10T12:40:07.783Z,41.77
2019-04-10T12:42:35.213Z,47.10
2019-04-10T12:45:04.824Z,48.70
2019-04-10T12:47:39.808Z,48.90
2019-04-10T12:50:08.133Z,45.20
2019-04-10T12:52:35.782Z,52.80
2019-04-10T12:55:03.929Z,48.23
2019-04-10T12:57:31.519Z,44.07
2019-04-10T13:00:01.418Z,44.83
2019-04-10T13:02:28.265Z,45.53
2019-04-10T13:04:56.614Z,45.13
2019-04-10T13:07:24.371Z,48.53
2019-04-10T13:09:51.868Z,46.53
2019-04-10T13:12:19.355Z,44.47
2019-04-10T13:14:46.807Z,44.07
2019-04-10T13:17:14.395Z,48.13
2019-04-10T13:19:42.863Z,42.93
2019-04-10T13:22:11.673Z,45.57
2019-04-10T13:24:39.688Z,45.50
2019-04-10T13:27:07.698Z,45.00
2019-04-10T13:29:36.323Z,44.03
2019-04-10T13:32:04.745Z,41.80
2019-04-10T13:34:33.336Z,41.70
2019-04-10T13:37:01.991Z,42.70
2019-04-10T13:39:30.863Z,46.67
2019-04-10T13:41:59.104Z,40.90
2019-04-10T13:44:26.696Z,44.90
2019-04-10T13:46:55.321Z,47.80
2019-04-10T13:49:24.019Z,45.23
2019-04-10T13:51:51.955Z,41.67
2019-04-10T13:54:20.682Z,44.30
2019-04-10T13:56:49.616Z,43.53
2019-04-10T13:59:20.615Z,47.20
2019-04-10T14:01:58.488Z,46.27
2019-04-10T14:04:27.214Z,39.53
2019-04-10T14:06:56.023Z,47.57
2019-04-10T14:09:35.147Z,44.30
2019-04-10T14:11:53.548Z,49.33
2019-04-10T14:14:21.375Z,53.17
2019-04-10T14:16:49.392Z,43.37
2019-04-10T14:19:17.714Z,45.03
2019-04-10T14:21:51.289Z,47.50
2019-04-10T14:24:16.359Z,34.67
2019-04-10T14:26:58.145Z,35.87
2019-04-10T14:29:26.890Z,35.03
2019-04-10T14:32:02.174Z,34.50
2019-04-10T14:34:30.465Z,34.13
2019-04-10T14:36:58.275Z,36.70
2019-04-10T14:39:27.237Z,36.60
2019-04-10T14:41:55.176Z,28.10
2019-04-10T14:44:23.359Z,34.20
2019-04-10T14:46:51.875Z,36.80
2019-04-10T14:49:27.154Z,31.50
2019-04-10T14:51:59.638Z,31.43
2019-04-10T14:54:27.983Z,32.73
2019-04-10T14:56:56.812Z,30.53
2019-04-10T14:59:44.207Z,49.73
2019-04-10T15:02:12.706Z,27.10
2019-04-10T15:04:47.013Z,27.40
2019-04-10T15:07:15.825Z,24.97
2019-04-10T15:09:43.883Z,25.50
2019-04-10T15:12:12.295Z,27.90
2019-04-10T15:14:40.965Z,25.70
2019-04-10T15:17:09.844Z,26.73
2019-04-10T15:19:39.224Z,28.87
2019-04-10T15:22:07.489Z,29.17
2019-04-10T15:24:42.794Z,28.40
2019-04-10T15:27:13.180Z,28.07
2019-04-10T15:29:43.003Z,31.00
2019-04-10T15:32:22.803Z,22.63
2019-04-10T15:34:51.531Z,26.43
2019-04-10T15:37:20.505Z,29.47
2019-04-10T15:39:49.716Z,30.00
2019-04-10T15:42:20.426Z,30.50
2019-04-10T15:44:51.290Z,29.40
2019-04-10T15:47:23.410Z,25.90
2019-04-10T15:49:56.477Z,25.80
2019-04-10T15:52:27.190Z,31.27
2019-04-10T15:54:59.442Z,29.70
2019-04-10T15:57:28.741Z,31.47
2019-04-10T16:00:06.064Z,30.63
2019-04-10T16:02:34.300Z,34.10
2019-04-10T16:05:05.483Z,28.43
2019-04-10T16:07:34.226Z,32.03
2019-04-10T16:10:25.300Z,26.63
2019-04-10T16:12:55.521Z,28.63
2019-04-10T16:15:23.111Z,27.90
2019-04-10T16:17:58.779Z,56.97
2019-04-10T16:20:29.419Z,50.20
2019-04-10T16:23:05.898Z,37.67
2019-04-10T16:25:33.998Z,34.17
2019-04-10T16:28:04.107Z,32.20
2019-04-10T16:30:32.974Z,26.77
2019-04-10T16:33:00.853Z,31.63
2019-04-10T16:35:29.584Z,31.80
2019-04-10T16:37:58.196Z,31.37
2019-04-10T16:40:26.960Z,31.37
2019-04-10T16:42:55.198Z,31.03
2019-04-10T16:45:26.450Z,31.67
2019-04-10T16:47:54.601Z,32.63
2019-04-10T16:50:23.632Z,29.17
2019-04-10T16:52:51.440Z,29.13
2019-04-10T16:55:19.462Z,28.33
2019-04-10T16:57:49.417Z,32.10
2019-04-10T17:00:19.532Z,30.33
2019-04-10T17:02:48.519Z,34.80
2019-04-10T17:05:16.757Z,34.93
2019-04-10T17:07:45.315Z,36.70
2019-04-10T17:10:20.457Z,37.07
2019-04-10T17:12:44.237Z,34.13
2019-04-10T17:15:12.886Z,36.93
2019-04-10T17:17:40.520Z,35.13
2019-04-10T17:20:08.554Z,38.97
2019-04-10T17:22:43.488Z,34.27
2019-04-10T17:25:09.635Z,40.67
2019-04-10T17:27:38.044Z,34.23
2019-04-10T17:30:06.297Z,31.93
2019-04-10T17:32:36.664Z,34.70
2019-04-10T17:35:09.802Z,32.13
2019-04-10T17:37:38.298Z,33.17
2019-04-10T17:40:08.597Z,33.80
2019-04-10T17:42:39.429Z,39.30
2019-04-10T17:45:12.191Z,37.20
2019-04-10T17:47:40.910Z,36.67
2019-04-10T17:50:12.169Z,39.93
2019-04-10T17:52:43.217Z,33.57
2019-04-10T17:55:11.595Z,38.33
2019-04-10T17:57:43.089Z,35.00
2019-04-10T18:00:27.169Z,37.17
2019-04-10T18:02:55.190Z,39.10
2019-04-10T18:05:23.171Z,34.43
2019-04-10T18:07:50.949Z,37.97
2019-04-10T18:10:18.768Z,40.87
2019-04-10T18:12:48.099Z,45.43
2019-04-10T18:15:15.976Z,37.70
2019-04-10T18:17:43.540Z,38.33
2019-04-10T18:20:11.192Z,40.93
2019-04-10T18:22:51.872Z,44.20
2019-04-10T18:25:20.180Z,38.37
2019-04-10T18:27:49.034Z,36.40
2019-04-10T18:30:16.922Z,33.40
2019-04-10T18:32:45.586Z,39.57
2019-04-10T18:35:14.298Z,31.50
2019-04-10T18:37:42.499Z,33.60
2019-04-10T18:40:10.773Z,44.67
2019-04-10T18:42:39.826Z,41.43
2019-04-10T18:45:09.286Z,39.00
2019-04-10T18:47:39.186Z,43.70
2019-04-10T18:50:07.594Z,44.43
2019-04-10T18:52:35.693Z,34.00
2019-04-10T18:55:04.048Z,35.17
2019-04-10T18:57:35.026Z,30.17
2019-04-10T19:00:22.072Z,30.87
2019-04-10T19:03:03.432Z,34.10
2019-04-10T19:05:36.772Z,31.53
2019-04-10T19:08:05.034Z,41.93
2019-04-10T19:10:32.944Z,33.80
2019-04-10T19:13:01.386Z,36.67
2019-04-10T19:15:29.393Z,35.27
2019-04-10T19:17:57.577Z,36.00
2019-04-10T19:20:25.459Z,36.30
2019-04-10T19:22:53.215Z,35.33
2019-04-10T19:25:21.129Z,38.17
2019-04-10T19:27:49.152Z,40.30
2019-04-10T19:30:35.389Z,35.90
2019-04-10T19:33:05.853Z,46.00
2019-04-10T19:35:33.634Z,37.80
2019-04-10T19:38:01.258Z,35.47
2019-04-10T19:40:29.847Z,45.83
2019-04-10T19:42:58.274Z,56.13
2019-04-10T19:45:26.315Z,52.43
2019-04-10T19:47:54.720Z,45.27
2019-04-10T19:50:23.427Z,43.87
2019-04-10T19:52:57.011Z,38.27
2019-04-10T19:55:25.627Z,37.40
2019-04-10T19:57:53.823Z,33.53
2019-04-10T20:00:25.471Z,32.37
2019-04-10T20:02:53.760Z,31.87
2019-04-10T20:05:21.902Z,31.80
2019-04-10T20:07:49.891Z,30.23
2019-04-10T20:10:17.778Z,34.00
2019-04-10T20:12:46.308Z,31.50
2019-04-10T20:15:16.262Z,27.63
2019-04-10T20:17:47.062Z,32.10
2019-04-10T20:20:17.296Z,29.03
2019-04-10T20:22:45.943Z,31.50
2019-04-10T20:25:14.401Z,28.03
2019-04-10T20:27:42.657Z,25.00
2019-04-10T20:33:59.094Z,24.67
2019-04-10T20:36:55.355Z,26.70
2019-04-10T20:39:33.635Z,27.87
2019-04-10T20:42:02.437Z,25.93
2019-04-10T20:44:34.455Z,22.00
2019-04-10T20:47:07.378Z,25.40
2019-04-10T20:49:38.486Z,23.73
2019-04-10T20:52:13.233Z,23.13
2019-04-10T20:54:41.475Z,24.23
2019-04-10T20:57:16.594Z,22.17
2019-04-10T20:59:44.656Z,25.23
2019-04-10T21:02:13.580Z,20.80
2019-04-10T21:04:53.504Z,22.87
2019-04-10T21:07:10.565Z,22.90
2019-04-10T21:09:38.117Z,21.97
2019-04-10T21:12:10.465Z,18.30
2019-04-10T21:14:35.805Z,20.50
2019-04-10T21:17:04.481Z,24.37
2019-04-10T21:19:33.334Z,23.17
2019-04-10T21:22:01.644Z,23.60
2019-04-10T21:24:29.578Z,25.93
2019-04-10T21:26:59.086Z,20.90
2019-04-10T21:29:50.553Z,24.47
2019-04-10T21:32:30.355Z,25.73
2019-04-10T21:34:57.924Z,19.97
2019-04-10T21:37:26.321Z,23.20
2019-04-10T21:39:54.173Z,22.30
2019-04-10T21:42:25.002Z,20.40
2019-04-10T21:44:51.357Z,22.70
2019-04-10T21:47:19.474Z,22.20
2019-04-10T21:49:47.020Z,24.83
2019-04-10T21:52:14.554Z,20.50
2019-04-10T21:54:49.641Z,21.40
2019-04-10T21:57:11.701Z,18.80
2019-04-10T21:59:40.483Z,15.40
2019-04-10T22:02:19.457Z,20.57
2019-04-10T22:04:47.690Z,22.43
2019-04-10T22:07:44.798Z,21.97
2019-04-10T22:10:23.901Z,19.27
2019-04-10T22:12:52.680Z,24.93
2019-04-10T22:15:41.395Z,20.30
2019-04-10T22:18:09.392Z,21.83
2019-04-10T22:20:36.936Z,23.67
2019-04-10T22:23:04.394Z,19.43
2019-04-10T22:25:32.029Z,16.97
2019-04-10T22:28:00.509Z,18.83
2019-04-10T22:30:29.189Z,19.33
2019-04-10T22:32:57.671Z,23.57
2019-04-10T22:35:25.819Z,16.33
2019-04-10T22:37:54.431Z,17.73
2019-04-10T22:40:22.040Z,19.00
2019-04-10T22:42:49.955Z,15.97
2019-04-10T22:45:28.019Z,16.93
2019-04-10T22:47:56.799Z,18.27
2019-04-10T22:50:24.515Z,19.03
2019-04-10T22:52:52.842Z,26.13
2019-04-10T22:55:21.746Z,20.43
2019-04-10T22:57:50.467Z,18.90
2019-04-10T23:00:30.260Z,19.60
2019-04-10T23:02:57.865Z,16.37
2019-04-10T23:05:25.361Z,14.47
2019-04-10T23:07:53.424Z,16.10
2019-04-10T23:10:21.202Z,17.13
2019-04-10T23:12:55.138Z,18.07
2019-04-10T23:15:19.591Z,15.97
2019-04-10T23:17:47.280Z,15.70
2019-04-10T23:20:14.760Z,16.70
2019-04-10T23:22:43.133Z,14.60
2019-04-10T23:25:11.961Z,15.83
2019-04-10T23:27:39.448Z,13.50
2019-04-10T23:30:12.855Z,18.07
2019-04-10T23:32:41.406Z,16.80
2019-04-10T23:35:10.255Z,13.73
2019-04-10T23:37:39.201Z,17.67
2019-04-10T23:40:08.301Z,22.47
2019-04-10T23:42:36.168Z,17.23
2019-04-10T23:45:05.160Z,17.43
2019-04-10T23:47:33.916Z,16.30
2019-04-10T23:50:01.941Z,16.90
2019-04-10T23:52:29.755Z,16.50
2019-04-10T23:54:57.594Z,18.30
2019-04-10T23:57:25.364Z,17.20
2019-04-10T23:59:53.389Z,14.90
